createdAt,value
2022-10-22T00:00:43.548Z,14.38
2022-10-22T00:03:10.620Z,16.85
2022-10-22T00:05:37.670Z,16.13
2022-10-22T00:08:04.774Z,18.27
2022-10-22T00:10:32.065Z,13.02
2022-10-22T00:12:59.219Z,13.77
2022-10-22T00:15:26.307Z,14.55
2022-10-22T00:17:53.389Z,13.45
2022-10-22T00:20:20.562Z,15.77
2022-10-22T00:22:47.673Z,16.55
2022-10-22T00:25:15.269Z,13.90
2022-10-22T00:27:42.841Z,14.07
2022-10-22T00:30:10.706Z,15.48
2022-10-22T00:32:38.312Z,17.20
2022-10-22T00:35:07.035Z,15.40
2022-10-22T00:37:34.010Z,17.10
2022-10-22T00:40:01.244Z,17.38
2022-10-22T00:42:30.457Z,16.35
2022-10-22T00:45:04.763Z,13.13
2022-10-22T00:47:37.870Z,14.27
2022-10-22T00:50:09.573Z,16.05
2022-10-22T00:52:37.256Z,12.13
2022-10-22T00:55:05.449Z,15.15
2022-10-22T00:57:34.530Z,13.80
2022-10-22T01:00:02.149Z,13.13
2022-10-22T01:02:31.034Z,12.93
2022-10-22T01:04:58.193Z,17.92
2022-10-22T01:07:26.338Z,12.02
2022-10-22T01:10:00.033Z,13.30
2022-10-22T01:12:46.382Z,12.93
2022-10-22T01:15:25.003Z,13.88
2022-10-22T01:17:52.101Z,10.23
2022-10-22T01:20:30.812Z,10.07
2022-10-22T01:23:22.425Z,11.85
2022-10-22T01:26:06.828Z,11.82
2022-10-22T01:28:54.513Z,10.90
2022-10-22T01:31:24.013Z,12.55
2022-10-22T01:33:54.832Z,10.73
2022-10-22T01:38:50.113Z,14.02
2022-10-22T01:41:17.718Z,16.65
2022-10-22T01:43:44.768Z,14.70
2022-10-22T01:46:13.617Z,17.60
2022-10-22T01:49:05.476Z,16.02
2022-10-22T01:51:53.099Z,13.38
2022-10-22T01:54:29.947Z,16.70
2022-10-22T01:57:19.708Z,17.08
2022-10-22T02:00:06.288Z,19.33
2022-10-22T02:02:43.755Z,20.50
2022-10-22T02:05:25.549Z,22.20
2022-10-22T02:07:56.136Z,19.95
2022-10-22T02:10:24.979Z,19.65
2022-10-22T02:12:55.175Z,21.10
2022-10-22T02:15:45.402Z,22.40
2022-10-22T02:18:14.526Z,20.67
2022-10-22T02:20:42.650Z,24.55
2022-10-22T02:23:10.746Z,18.77
2022-10-22T02:25:42.176Z,18.00
2022-10-22T02:28:38.511Z,20.17
2022-10-22T02:31:15.909Z,19.20
2022-10-22T02:33:47.821Z,20.05
2022-10-22T02:36:17.717Z,16.00
2022-10-22T02:38:48.191Z,13.83
2022-10-22T02:41:16.977Z,13.27
2022-10-22T02:43:51.407Z,16.67
2022-10-22T02:46:18.506Z,15.70
2022-10-22T02:48:45.593Z,13.38
2022-10-22T02:51:12.768Z,13.10
2022-10-22T02:53:39.932Z,12.45
2022-10-22T02:56:07.243Z,14.48
2022-10-22T02:58:34.452Z,13.45
2022-10-22T03:01:01.767Z,19.45
2022-10-22T03:03:28.924Z,12.65
2022-10-22T03:05:55.949Z,12.35
2022-10-22T03:08:23.102Z,14.00
2022-10-22T03:10:50.197Z,10.95
2022-10-22T03:13:17.297Z,14.80
2022-10-22T03:15:44.329Z,15.10
2022-10-22T03:18:11.469Z,15.25
2022-10-22T03:20:38.448Z,15.45
2022-10-22T03:23:05.861Z,16.45
2022-10-22T03:25:34.713Z,12.80
2022-10-22T03:28:05.384Z,13.73
2022-10-22T03:32:59.616Z,14.00
2022-10-22T03:35:27.046Z,11.18
2022-10-22T03:37:55.016Z,13.57
2022-10-22T03:40:22.352Z,13.93
2022-10-22T03:42:49.417Z,13.68
2022-10-22T03:45:16.683Z,17.73
2022-10-22T03:47:43.815Z,13.35
2022-10-22T03:50:10.922Z,13.02
2022-10-22T03:52:40.141Z,15.43
2022-10-22T03:55:08.715Z,12.15
2022-10-22T03:57:36.009Z,13.55
2022-10-22T04:00:05.972Z,14.25
2022-10-22T04:02:33.115Z,12.30
2022-10-22T04:05:01.165Z,13.05
2022-10-22T04:07:28.937Z,15.13
2022-10-22T04:09:56.342Z,13.50
2022-10-22T04:12:23.347Z,11.30
2022-10-22T04:14:50.492Z,15.13
2022-10-22T04:17:17.650Z,14.95
2022-10-22T04:19:45.566Z,13.20
2022-10-22T04:22:12.694Z,13.77
2022-10-22T04:24:39.792Z,17.67
2022-10-22T04:27:07.748Z,15.32
2022-10-22T04:29:34.850Z,17.60
2022-10-22T04:32:02.000Z,13.57
2022-10-22T04:34:29.300Z,14.18
2022-10-22T04:36:56.884Z,13.93
2022-10-22T04:39:23.996Z,16.13
2022-10-22T04:41:51.086Z,15.88
2022-10-22T04:44:18.324Z,17.98
2022-10-22T04:46:46.121Z,14.50
2022-10-22T04:49:13.252Z,19.05
2022-10-22T04:51:40.532Z,14.85
2022-10-22T04:54:08.191Z,14.40
2022-10-22T04:56:35.812Z,13.63
2022-10-22T04:59:07.189Z,15.30
2022-10-22T05:01:42.723Z,15.38
2022-10-22T05:04:16.285Z,14.15
2022-10-22T05:06:44.352Z,12.77
2022-10-22T05:09:17.481Z,16.23
2022-10-22T05:11:48.802Z,15.27
2022-10-22T05:14:20.037Z,12.73
2022-10-22T05:16:48.997Z,11.95
2022-10-22T05:19:24.251Z,13.00
2022-10-22T05:21:52.874Z,14.50
2022-10-22T05:24:19.957Z,14.32
2022-10-22T05:26:50.658Z,11.68
2022-10-22T05:31:44.838Z,13.57
2022-10-22T05:34:12.041Z,16.30
2022-10-22T05:36:39.906Z,14.20
2022-10-22T05:39:07.439Z,12.52
2022-10-22T05:41:38.332Z,13.10
2022-10-22T05:44:06.091Z,12.73
2022-10-22T05:46:36.872Z,15.45
2022-10-22T05:49:06.170Z,12.48
2022-10-22T05:51:35.758Z,14.27
2022-10-22T05:54:05.130Z,16.80
2022-10-22T05:56:32.904Z,12.55
2022-10-22T05:59:01.049Z,16.90
2022-10-22T06:01:30.819Z,15.35
2022-10-22T06:04:00.619Z,14.27
2022-10-22T06:06:34.907Z,11.57
2022-10-22T06:09:07.068Z,15.23
2022-10-22T06:11:35.290Z,16.08
2022-10-22T06:14:04.184Z,17.70
2022-10-22T06:16:32.160Z,17.02
2022-10-22T06:19:02.217Z,17.55
2022-10-22T06:21:30.758Z,14.35
2022-10-22T06:23:58.937Z,20.40
2022-10-22T06:26:26.695Z,15.85
2022-10-22T06:28:55.825Z,16.00
2022-10-22T06:31:23.488Z,17.60
2022-10-22T06:33:50.611Z,16.23
2022-10-22T06:36:23.084Z,16.17
2022-10-22T06:38:54.895Z,14.48
2022-10-22T06:41:25.750Z,13.82
2022-10-22T06:43:57.886Z,12.80
2022-10-22T06:46:26.305Z,12.27
2022-10-22T06:48:59.014Z,14.15
2022-10-22T06:51:27.402Z,13.98
2022-10-22T06:53:58.108Z,12.85
2022-10-22T06:56:27.652Z,12.52
2022-10-22T06:58:56.953Z,15.30
2022-10-22T07:01:30.700Z,17.55
2022-10-22T07:03:58.687Z,16.42
2022-10-22T07:06:28.324Z,14.10
2022-10-22T07:08:57.279Z,17.30
2022-10-22T07:11:30.478Z,19.20
2022-10-22T07:14:00.183Z,16.27
2022-10-22T07:16:31.055Z,15.35
2022-10-22T07:19:00.698Z,18.83
2022-10-22T07:21:28.246Z,19.58
2022-10-22T07:23:55.409Z,21.35
2022-10-22T07:26:25.031Z,12.93
2022-10-22T07:28:52.146Z,20.58
2022-10-22T07:31:19.891Z,21.15
2022-10-22T07:33:46.881Z,11.68
2022-10-22T07:36:18.039Z,15.63
2022-10-22T07:38:53.233Z,14.88
2022-10-22T07:41:20.274Z,11.52
2022-10-22T07:43:47.217Z,13.48
2022-10-22T07:46:14.195Z,14.55
2022-10-22T07:48:41.389Z,10.93
2022-10-22T07:51:08.682Z,13.57
2022-10-22T07:53:35.999Z,16.17
2022-10-22T07:56:03.184Z,15.05
2022-10-22T07:58:30.504Z,12.10
2022-10-22T08:01:00.908Z,14.52
2022-10-22T08:03:29.181Z,16.20
2022-10-22T08:05:56.204Z,15.60
2022-10-22T08:08:25.921Z,12.60
2022-10-22T08:10:58.826Z,14.85
2022-10-22T08:13:26.496Z,26.23
2022-10-22T08:15:57.260Z,30.10
2022-10-22T08:18:25.355Z,16.58
2022-10-22T08:20:52.997Z,11.18
2022-10-22T08:23:24.400Z,13.73
2022-10-22T08:25:54.657Z,16.83
2022-10-22T08:28:22.370Z,12.07
2022-10-22T08:30:49.631Z,12.63
2022-10-22T08:33:16.775Z,17.75
2022-10-22T08:35:48.603Z,14.13
2022-10-22T08:38:15.684Z,14.70
2022-10-22T08:40:44.476Z,12.27
2022-10-22T08:43:41.956Z,17.05
2022-10-22T08:46:17.639Z,12.93
2022-10-22T08:48:52.795Z,16.75
2022-10-22T08:51:24.036Z,14.30
2022-10-22T08:54:21.875Z,14.65
2022-10-22T08:57:09.698Z,15.63
2022-10-22T08:59:50.734Z,21.10
2022-10-22T09:02:33.775Z,17.70
2022-10-22T09:05:22.847Z,17.10
2022-10-22T09:07:50.655Z,14.18
2022-10-22T09:10:21.979Z,15.35
2022-10-22T09:12:49.118Z,12.50
2022-10-22T09:15:18.441Z,12.68
2022-10-22T09:18:31.222Z,13.90
2022-10-22T09:21:29.304Z,12.48
2022-10-22T09:24:04.940Z,13.45
2022-10-22T09:26:35.624Z,12.82
2022-10-22T09:29:04.208Z,13.57
2022-10-22T09:31:33.569Z,10.90
2022-10-22T09:34:06.221Z,11.20
2022-10-22T09:36:34.512Z,12.30
2022-10-22T09:39:01.618Z,14.90
2022-10-22T09:41:30.157Z,12.60
2022-10-22T09:43:58.416Z,13.50
2022-10-22T09:46:30.167Z,15.18
2022-10-22T09:49:06.865Z,14.25
2022-10-22T09:51:52.088Z,12.30
2022-10-22T09:54:21.857Z,11.75
2022-10-22T09:57:03.028Z,9.77
2022-10-22T09:59:33.460Z,11.90
2022-10-22T10:02:20.108Z,11.98
2022-10-22T10:04:57.791Z,13.52
2022-10-22T10:07:27.390Z,12.88
2022-10-22T10:09:55.008Z,13.88
2022-10-22T10:15:27.832Z,13.63
2022-10-22T10:18:08.790Z,14.23
2022-10-22T10:20:41.037Z,13.65
2022-10-22T10:23:25.481Z,9.48
2022-10-22T10:26:19.891Z,10.30
2022-10-22T10:29:04.841Z,11.40
2022-10-22T10:31:53.087Z,9.32
2022-10-22T10:34:58.415Z,12.63
2022-10-22T10:37:38.640Z,11.00
2022-10-22T10:40:20.752Z,7.72
2022-10-22T10:43:06.705Z,9.13
2022-10-22T10:46:00.655Z,7.15
2022-10-22T10:48:46.368Z,6.10
2022-10-22T10:51:39.521Z,9.68
2022-10-22T10:54:24.342Z,7.18
2022-10-22T10:57:02.482Z,6.88
2022-10-22T10:59:59.082Z,9.48
2022-10-22T11:02:45.355Z,8.65
2022-10-22T11:05:39.378Z,5.78
2022-10-22T11:08:21.432Z,8.30
2022-10-22T11:11:03.556Z,11.32
2022-10-22T11:13:46.132Z,9.00
2022-10-22T11:17:04.030Z,10.98
2022-10-22T11:19:50.877Z,10.43
2022-10-22T11:22:27.272Z,9.93
2022-10-22T11:25:01.473Z,13.73
2022-10-22T11:27:39.250Z,11.02
2022-10-22T11:30:15.303Z,11.60
2022-10-22T11:32:44.599Z,16.15
2022-10-22T11:35:25.842Z,12.48
2022-10-22T11:37:56.017Z,10.07
2022-10-22T11:40:46.693Z,8.27
2022-10-22T11:43:35.989Z,10.60
2022-10-22T11:46:08.952Z,12.93
2022-10-22T11:48:38.388Z,10.05
2022-10-22T11:51:44.128Z,6.97
2022-10-22T11:54:37.432Z,11.02
2022-10-22T11:57:38.181Z,13.32
2022-10-22T12:03:33.563Z,8.32
2022-10-22T12:06:12.707Z,11.35
2022-10-22T12:08:54.645Z,11.65
2022-10-22T12:11:37.623Z,10.98
2022-10-22T12:14:30.080Z,14.95
2022-10-22T12:17:18.180Z,8.38
2022-10-22T12:19:47.819Z,8.48
2022-10-22T12:22:21.870Z,14.48
2022-10-22T12:24:52.010Z,12.15
2022-10-22T12:27:23.436Z,12.32
2022-10-22T12:29:58.223Z,15.73
2022-10-22T12:32:34.648Z,11.70
2022-10-22T12:35:09.309Z,12.20
2022-10-22T12:37:37.789Z,13.57
2022-10-22T12:40:18.642Z,14.80
2022-10-22T12:42:51.787Z,8.82
2022-10-22T12:45:19.347Z,11.10
2022-10-22T12:47:55.576Z,10.63
2022-10-22T12:50:31.491Z,6.97
2022-10-22T12:52:59.333Z,15.80
2022-10-22T12:55:27.255Z,9.52
2022-10-22T12:57:54.408Z,8.63
2022-10-22T13:00:21.779Z,8.50
2022-10-22T13:02:49.214Z,6.38
2022-10-22T13:05:17.946Z,8.85
2022-10-22T13:07:50.922Z,12.23
2022-10-22T13:10:25.676Z,7.07
2022-10-22T13:12:57.605Z,9.18
2022-10-22T13:15:27.615Z,11.43
2022-10-22T13:18:33.149Z,6.38
2022-10-22T13:21:03.299Z,11.95
2022-10-22T13:23:33.359Z,8.68
2022-10-22T13:26:05.196Z,4.75
2022-10-22T13:28:32.934Z,5.43
2022-10-22T13:31:02.930Z,8.02
2022-10-22T13:33:34.577Z,9.30
2022-10-22T13:36:02.451Z,6.63
2022-10-22T13:38:29.659Z,9.93
2022-10-22T13:40:57.606Z,8.35
2022-10-22T13:43:25.492Z,9.38
2022-10-22T13:45:55.875Z,6.35
2022-10-22T13:48:25.457Z,5.88
2022-10-22T13:50:53.808Z,11.52
2022-10-22T13:53:26.688Z,6.68
2022-10-22T13:55:53.871Z,8.38
2022-10-22T13:58:25.787Z,7.00
2022-10-22T14:00:58.466Z,12.15
2022-10-22T14:03:29.707Z,9.93
2022-10-22T14:05:57.522Z,10.38
2022-10-22T14:08:26.356Z,7.10
2022-10-22T14:10:53.939Z,12.90
2022-10-22T14:13:21.768Z,11.05
2022-10-22T14:15:51.611Z,11.35
2022-10-22T14:18:25.520Z,11.33
2022-10-22T14:20:55.336Z,11.60
2022-10-22T14:23:25.727Z,10.65
2022-10-22T14:25:53.424Z,14.23
2022-10-22T14:28:20.515Z,14.07
2022-10-22T14:30:47.740Z,9.38
2022-10-22T14:33:21.555Z,13.70
2022-10-22T14:35:49.793Z,11.82
2022-10-22T14:38:17.070Z,9.82
2022-10-22T14:40:45.640Z,13.68
2022-10-22T14:43:33.871Z,11.75
2022-10-22T14:46:00.853Z,9.57
2022-10-22T14:48:27.821Z,11.35
2022-10-22T14:50:54.923Z,11.07
2022-10-22T14:53:21.946Z,11.68
2022-10-22T14:55:51.579Z,11.23
2022-10-22T14:58:18.778Z,8.48
2022-10-22T15:00:45.776Z,13.88
2022-10-22T15:03:12.826Z,12.93
2022-10-22T15:05:44.930Z,14.32
2022-10-22T15:08:13.698Z,15.00
2022-10-22T15:10:40.884Z,15.20
2022-10-22T15:13:08.138Z,13.55
2022-10-22T15:15:39.462Z,17.75
2022-10-22T15:18:07.467Z,17.50
2022-10-22T15:20:34.476Z,11.88
2022-10-22T15:23:01.389Z,13.52
2022-10-22T15:25:28.877Z,15.88
2022-10-22T15:28:00.750Z,12.70
2022-10-22T15:30:31.827Z,17.67
2022-10-22T15:32:58.876Z,14.93
2022-10-22T15:35:28.866Z,15.02
2022-10-22T15:37:55.912Z,14.48
2022-10-22T15:40:22.797Z,13.60
2022-10-22T15:42:49.821Z,14.18
2022-10-22T15:45:16.898Z,20.27
2022-10-22T15:47:49.172Z,17.40
2022-10-22T15:50:17.016Z,18.40
2022-10-22T15:52:43.956Z,13.75
2022-10-22T15:55:14.630Z,16.92
2022-10-22T15:57:41.964Z,14.82
2022-10-22T16:00:09.673Z,14.40
2022-10-22T16:02:39.844Z,23.80
2022-10-22T16:05:07.466Z,15.80
2022-10-22T16:07:34.370Z,14.90
2022-10-22T16:10:03.738Z,16.95
2022-10-22T16:12:30.925Z,14.05
2022-10-22T16:14:57.830Z,18.15
2022-10-22T16:17:24.892Z,19.55
2022-10-22T16:19:51.870Z,18.60
2022-10-22T16:22:18.863Z,15.50
2022-10-22T16:24:45.815Z,15.35
2022-10-22T16:27:12.777Z,27.55
2022-10-22T16:29:40.249Z,18.75
2022-10-22T16:32:07.675Z,17.25
2022-10-22T16:34:34.747Z,18.90
2022-10-22T16:37:02.718Z,19.17
2022-10-22T16:39:29.649Z,18.30
2022-10-22T16:41:56.577Z,17.10
2022-10-22T16:44:23.858Z,16.90
2022-10-22T16:46:50.800Z,19.27
2022-10-22T16:49:17.838Z,18.20
2022-10-22T16:51:44.933Z,16.20
2022-10-22T16:54:12.730Z,17.70
2022-10-22T16:56:40.043Z,16.05
2022-10-22T16:59:07.590Z,22.42
2022-10-22T17:01:38.122Z,17.33
2022-10-22T17:04:09.446Z,19.45
2022-10-22T17:06:36.485Z,16.88
2022-10-22T17:09:03.874Z,21.23
2022-10-22T17:11:35.714Z,16.40
2022-10-22T17:14:04.584Z,17.70
2022-10-22T17:16:31.619Z,18.98
2022-10-22T17:18:58.663Z,17.15
2022-10-22T17:21:25.770Z,17.38
2022-10-22T17:23:57.364Z,17.58
2022-10-22T17:26:26.579Z,18.17
2022-10-22T17:28:54.102Z,16.02
2022-10-22T17:31:24.542Z,17.35
2022-10-22T17:33:53.542Z,18.50
2022-10-22T17:36:22.012Z,21.92
2022-10-22T17:38:52.404Z,19.73
2022-10-22T17:41:24.931Z,19.88
2022-10-22T17:43:52.720Z,20.92
2022-10-22T17:46:24.743Z,18.17
2022-10-22T17:48:53.731Z,18.25
2022-10-22T17:51:21.660Z,18.52
2022-10-22T17:53:52.188Z,20.88
2022-10-22T17:56:22.111Z,16.95
2022-10-22T17:58:49.694Z,17.60
2022-10-22T18:01:31.445Z,17.98
2022-10-22T18:04:04.955Z,16.90
2022-10-22T18:06:32.585Z,15.02
2022-10-22T18:08:59.676Z,20.73
2022-10-22T18:11:28.290Z,14.05
2022-10-22T18:13:57.417Z,20.13
2022-10-22T18:16:25.826Z,15.20
2022-10-22T18:18:54.958Z,18.73
2022-10-22T18:21:24.139Z,15.10
2022-10-22T18:23:51.288Z,18.50
2022-10-22T18:26:21.405Z,19.23
2022-10-22T18:28:51.316Z,12.77
2022-10-22T18:31:20.582Z,18.20
2022-10-22T18:33:48.417Z,14.98
2022-10-22T18:36:19.303Z,14.95
2022-10-22T18:39:00.370Z,21.60
2022-10-22T18:41:29.594Z,13.60
2022-10-22T18:43:59.093Z,16.23
2022-10-22T18:46:27.153Z,15.15
2022-10-22T18:48:55.697Z,12.38
2022-10-22T18:51:25.751Z,21.52
2022-10-22T18:54:05.817Z,16.77
2022-10-22T18:56:43.860Z,16.67
2022-10-22T18:59:25.070Z,15.27
2022-10-22T19:01:54.546Z,12.18
2022-10-22T19:04:21.990Z,16.67
2022-10-22T19:06:49.044Z,15.60
2022-10-22T19:09:16.730Z,17.33
2022-10-22T19:11:45.218Z,19.90
2022-10-22T19:14:15.603Z,19.83
2022-10-22T19:16:42.740Z,19.63
2022-10-22T19:19:09.720Z,15.68
2022-10-22T19:21:37.982Z,16.60
2022-10-22T19:24:05.176Z,14.93
2022-10-22T19:26:32.651Z,16.23
2022-10-22T19:29:00.276Z,14.60
2022-10-22T19:31:30.124Z,17.05
2022-10-22T19:33:58.545Z,13.93
2022-10-22T19:36:28.315Z,14.82
2022-10-22T19:38:55.938Z,17.88
2022-10-22T19:41:24.981Z,17.98
2022-10-22T19:43:53.924Z,20.05
2022-10-22T19:46:23.104Z,15.40
2022-10-22T19:48:51.522Z,14.63
2022-10-22T19:51:27.549Z,16.88
2022-10-22T19:54:04.286Z,19.27
2022-10-22T19:56:33.883Z,16.63
2022-10-22T19:59:01.054Z,16.15
2022-10-22T20:01:28.361Z,15.95
2022-10-22T20:03:55.392Z,16.65
2022-10-22T20:06:22.340Z,15.77
2022-10-22T20:08:52.377Z,15.88
2022-10-22T20:11:25.292Z,17.05
2022-10-22T20:13:52.783Z,17.17
2022-10-22T20:16:23.267Z,14.43
2022-10-22T20:18:51.645Z,15.60
2022-10-22T20:21:19.894Z,23.08
2022-10-22T20:23:49.184Z,20.05
2022-10-22T20:26:16.139Z,17.77
2022-10-22T20:28:43.056Z,15.45
2022-10-22T20:31:12.065Z,17.20
2022-10-22T20:33:39.497Z,14.85
2022-10-22T20:36:09.708Z,18.67
2022-10-22T20:41:12.428Z,17.23
2022-10-22T20:46:06.414Z,17.85
2022-10-22T20:48:33.748Z,14.40
2022-10-22T20:51:01.811Z,14.23
2022-10-22T20:53:28.916Z,14.35
2022-10-22T20:55:59.063Z,13.07
2022-10-22T20:58:27.761Z,19.33
2022-10-22T21:00:55.577Z,16.45
2022-10-22T21:03:22.992Z,16.05
2022-10-22T21:05:50.451Z,15.40
2022-10-22T21:08:17.823Z,16.15
2022-10-22T21:10:49.262Z,16.15
2022-10-22T21:13:16.972Z,13.82
2022-10-22T21:15:44.620Z,13.55
2022-10-22T21:18:11.661Z,16.00
2022-10-22T21:20:41.974Z,19.60
2022-10-22T21:23:10.358Z,14.13
2022-10-22T21:25:40.800Z,16.35
2022-10-22T21:28:10.306Z,16.80
2022-10-22T21:30:37.388Z,14.77
2022-10-22T21:33:04.308Z,19.35
2022-10-22T21:35:32.511Z,14.45
2022-10-22T21:37:59.451Z,14.80
2022-10-22T21:40:27.669Z,18.20
2022-10-22T21:42:54.645Z,15.68
2022-10-22T21:45:22.575Z,14.23
2022-10-22T21:47:49.687Z,12.48
2022-10-22T21:50:16.838Z,16.67
2022-10-22T21:52:43.794Z,12.95
2022-10-22T21:55:10.889Z,15.77
2022-10-22T21:57:39.203Z,15.52
2022-10-22T22:00:08.239Z,13.82
2022-10-22T22:02:35.275Z,12.98
2022-10-22T22:05:02.223Z,17.15
2022-10-22T22:07:30.268Z,13.07
2022-10-22T22:09:57.264Z,20.25
2022-10-22T22:12:24.365Z,17.63
2022-10-22T22:14:51.247Z,17.38
2022-10-22T22:17:18.728Z,16.23
2022-10-22T22:19:45.635Z,14.40
2022-10-22T22:22:12.577Z,17.10
2022-10-22T22:24:39.962Z,15.23
2022-10-22T22:27:07.492Z,14.68
2022-10-22T22:29:34.824Z,15.82
2022-10-22T22:32:01.847Z,12.57
2022-10-22T22:34:28.861Z,12.75
2022-10-22T22:36:55.804Z,12.65
2022-10-22T22:39:23.638Z,16.88
2022-10-22T22:41:50.938Z,14.57
2022-10-22T22:44:18.113Z,16.80
2022-10-22T22:46:45.188Z,13.75
2022-10-22T22:49:13.426Z,14.55
2022-10-22T22:51:40.331Z,17.58
2022-10-22T22:54:07.514Z,15.68
2022-10-22T22:56:34.744Z,15.85
2022-10-22T22:59:02.644Z,17.90
2022-10-22T23:01:34.304Z,15.27
2022-10-22T23:04:13.190Z,19.33
2022-10-22T23:06:40.381Z,14.45
2022-10-22T23:09:09.939Z,13.88
2022-10-22T23:11:37.203Z,16.27
2022-10-22T23:14:06.379Z,18.38
2022-10-22T23:16:36.822Z,17.90
2022-10-22T23:19:05.544Z,15.15
2022-10-22T23:21:35.949Z,15.02
2022-10-22T23:24:06.078Z,16.13
2022-10-22T23:26:38.751Z,16.80
2022-10-22T23:29:09.148Z,18.17
2022-10-22T23:31:36.327Z,17.05
2022-10-22T23:34:03.566Z,18.70
2022-10-22T23:36:30.630Z,19.88
2022-10-22T23:38:57.664Z,15.63
2022-10-22T23:41:24.729Z,15.70
2022-10-22T23:43:51.758Z,16.77
2022-10-22T23:46:18.775Z,15.32
2022-10-22T23:48:45.839Z,16.13
2022-10-22T23:51:15.410Z,17.95
2022-10-22T23:53:44.311Z,17.73
2022-10-22T23:56:15.325Z,17.50
2022-10-22T23:58:42.730Z,19.30
